Historyczne dane pomiarowe

Dodano dane terminowe – wersja testowa.

Dane z okresu 1951-2019

Wersja bazy: 1.34 [2019-03-16, lista zmian], aktualizacja planowana na 2019-04-15

Dane meteo z obszaru Polski uzyskane na podstawie danych udostępnionych przez Instytut Meteorologii i Gospodarki Wodnej – Państwowy Instytut Badawczy.

 

Wybierz Datę:    

       

TemperaturaWilgotnośćWiatrCiśnienieOpadyŚniegCzas trwania zjawisk
 Stacja t tx tn tng RH VA  wxwx mslp ppp RRR   cm mm wxwxwxwxwxwxwx
1987-08-14 14.9 19.6 9.5 2.1 75.0- 6.0 3.7---- 6.6------------
1987-08-13 13.5 19.1 10.5 6.5 83.5- 4.7 3.0---- 0.0------------
1987-08-12 11.5 14.7 9.5 5.3 89.0- 5.7 7.7---- 7.8------------
1987-08-11 12.5 14.8 10.8 7.3 84.8- 6.0 6.7---- 0.5------------
1987-08-10 13.2 14.8 12.6 8.3 95.3- 7.7 2.0---- 8.6------------
1987-08-09 15.0 20.6 11.3 4.3 79.3- 3.7 4.3---- 15.4------------
1987-08-08 13.6 20.8 7.3 -0.5 73.3- 2.7 5.0---- 0.1------------
1987-08-07 13.4 17.2 10.7 6.4 72.0- 4.0 4.3---- 0.0------------
1987-08-06 12.7 16.7 10.8 6.8 83.8- 6.3 5.0---- 0.1------------
1987-08-05 11.8 14.8 8.9 3.5 81.8- 7.7 5.0---- 0.0------------
1987-08-04 11.4 15.3 9.6 2.7 92.0- 5.7 2.7---- 5.6------------
1987-08-03 13.0 17.5 10.6 4.2 82.0- 6.3 3.7---- 5.8------------
1987-08-02 13.2 17.2 10.4 4.9 80.0- 3.7 2.7---- 0.4------------
1987-08-01 14.4 16.9 12.1 6.8 87.8- 7.7 4.3---- 0.9------------
1987-07-31 14.9 16.8 13.7 10.4 85.5- 7.7 3.7---- 8.3------------
1987-07-30 15.3 19.3 11.0 6.8 76.8- 6.7 2.7---- 0.7------------
1987-07-29 13.5 16.8 11.5 7.3 84.5- 7.7 2.7---- 0.6------------
1987-07-28 14.0 18.6 10.9 7.3 82.0- 6.3 6.7---- 2.2------------
1987-07-27 11.7 15.7 9.0 3.4 83.3- 6.7 3.3---- 4.9------------
1987-07-26 13.9 17.0 10.7 3.2 72.5- 3.3 5.3---- 0.0------------
1987-07-25 16.4 18.5 15.4 9.7 82.0- 5.3 5.0---- 0.2------------
1987-07-24 18.5 24.2 14.5 9.1 79.8- 6.0 3.7---- 1.2------------
1987-07-23 19.6 24.6 14.8 9.0 83.3- 5.0 2.3---- 0.9------------
1987-07-22 19.1 25.8 13.2 8.1 82.8- 4.3 2.0---- 0.0------------
1987-07-21 17.6 21.5 14.6 11.8 88.3- 5.0 2.7---- 0.0------------
1987-07-20 17.0 18.6 14.8 10.9 86.0- 8.0 3.3---- 3.4------------
1987-07-19 17.7 23.5 12.1 6.6 74.8- 4.7 6.7---- 4.1------------
1987-07-18 18.9 24.2 14.3 11.1 75.0- 3.0 6.0---- 0.0------------
1987-07-17 18.3 23.6 11.0 5.3 68.8- 0.3 8.3---- 0.0------------
1987-07-16 16.0 22.0 6.8 1.0 72.5- 2.7 3.3---- 0.0------------
1987-07-15 14.4 20.6 7.0 -0.5 76.3- 3.7 3.7---- 0.0------------
1987-07-14 14.8 18.6 11.0 6.4 76.3- 3.0 5.7---- 0.0------------
1987-07-13 12.7 18.0 11.2 7.3 91.8- 7.0 5.0---- 6.6------------
1987-07-12 16.3 19.1 12.8 9.1 89.5- 7.0 4.0---- 2.1------------
1987-07-11 12.5 15.0 9.8 4.9 83.5- 8.0 3.3---- 3.1------------
1987-07-10 13.4 16.2 10.4 6.0 74.3- 4.7 8.3---- 7.3------------
1987-07-09 16.3 21.8 15.2 12.5 80.3- 4.7 5.3---- 11.2------------
1987-07-08 21.7 28.5 15.4 5.8 68.8- 3.0 4.3---- 8.0------------
1987-07-07 19.8 26.7 9.6 2.8 62.8- 0.3 3.3---- 0.0------------
1987-07-06 16.1 22.8 5.7 -1.2 64.3- 0.0 3.3---- 0.0------------
1987-07-05 15.9 21.5 10.3 2.9 75.5- 1.0 4.3---- 0.0------------
1987-07-04 13.6 19.8 7.0 0.0 78.0- 4.0 5.3---- 0.0------------
1987-07-03 15.0 19.8 6.8 -0.1 69.5- 0.0 4.3---- 0.0------------
1987-07-02 16.7 20.3 12.6 5.3 74.3- 2.0 5.0---- 0.0------------
1987-07-01 21.8 29.9 16.8 14.8 83.5- 5.7 5.0---- 3.3------------
1987-06-30 22.0 27.0 17.1 14.2 81.0- 4.3 2.7---- 0.0------------
1987-06-29 15.2 20.5 7.0 -0.2 85.3- 5.7 4.0---- 0.6------------
1987-06-28 13.8 17.5 10.5 5.4 81.0- 5.0 6.0---- 0.7------------
1987-06-27 15.9 18.7 13.4 9.2 76.3- 3.7 3.3---- 5.4------------
1987-06-26 15.1 19.8 9.2 0.8 74.3- 4.7 3.3---- 0.0------------
1987-06-25 12.4 16.5 10.3 2.9 84.0- 4.7 4.3---- 1.0------------
1987-06-24 14.5 17.8 12.9 7.8 80.8- 7.3 6.0---- 0.1------------
1987-06-23 14.2 18.5 10.4 6.2 84.5- 7.3 2.7---- 1.8------------
1987-06-22 15.5 22.6 9.3 2.2 82.0- 1.7 5.0---- 0.0------------
1987-06-21 17.3 23.2 7.9 1.0 66.5- 0.3 3.7---- 0.0------------
1987-06-20 15.2 20.4 9.0 1.7 70.5- 1.7 3.7---- 0.0------------
1987-06-19 10.8 14.5 7.5 2.7 83.8- 6.0 3.3---- 2.1------------
1987-06-18 11.1 17.0 6.5 -0.5 78.3- 2.7 4.0---- 7.3------------
1987-06-17 11.9 16.8 11.0 6.6 73.8- 6.0 6.0---- 0.0------------
1987-06-16 13.7 18.4 10.0 8.7 86.5- 8.0 7.7---- 0.5------------
532.5 ms

 

Źródłem pochodzenia danych jest Instytut Meteorologii i Gospodarki Wodnej – Państwowy Instytut Badawczy. Dane Instytutu Meteorologii i Gospodarki Wodnej – Państwowego Instytutu Badawczego zostały przetworzone.

Dane źródłowe można odnaleźć na stronie https://dane.imgw.pl